sensor_id;sensor_type;location;lat;lon;timestamp;P1;durP1;ratioP1;P2;durP2;ratioP2
62941;SDS011;49042;47.318;19.874;2023-06-14T00:00:02;11.75;;;6.68;;
62941;SDS011;49042;47.318;19.874;2023-06-14T00:03:05;9.60;;;7.07;;
62941;SDS011;49042;47.318;19.874;2023-06-14T00:06:07;9.10;;;6.82;;
62941;SDS011;49042;47.318;19.874;2023-06-14T00:09:09;17.85;;;8.13;;
62941;SDS011;49042;47.318;19.874;2023-06-14T00:12:11;12.07;;;7.62;;
62941;SDS011;49042;47.318;19.874;2023-06-14T00:15:12;15.68;;;8.35;;
62941;SDS011;49042;47.318;19.874;2023-06-14T00:18:14;11.77;;;7.97;;
62941;SDS011;49042;47.318;19.874;2023-06-14T00:21:16;15.18;;;9.55;;
62941;SDS011;49042;47.318;19.874;2023-06-14T00:24:18;20.60;;;10.48;;
62941;SDS011;49042;47.318;19.874;2023-06-14T00:27:20;15.85;;;9.55;;
62941;SDS011;49042;47.318;19.874;2023-06-14T00:30:22;15.75;;;9.70;;
62941;SDS011;49042;47.318;19.874;2023-06-14T00:33:25;16.23;;;9.48;;
62941;SDS011;49042;47.318;19.874;2023-06-14T00:36:27;16.17;;;9.63;;
62941;SDS011;49042;47.318;19.874;2023-06-14T00:39:28;13.05;;;8.43;;
62941;SDS011;49042;47.318;19.874;2023-06-14T00:42:30;12.75;;;8.30;;
62941;SDS011;49042;47.318;19.874;2023-06-14T00:45:32;12.00;;;8.43;;
62941;SDS011;49042;47.318;19.874;2023-06-14T00:48:37;12.63;;;8.02;;
62941;SDS011;49042;47.318;19.874;2023-06-14T00:51:41;13.60;;;9.18;;
62941;SDS011;49042;47.318;19.874;2023-06-14T00:54:43;13.85;;;9.57;;
62941;SDS011;49042;47.318;19.874;2023-06-14T00:57:45;12.80;;;8.75;;
62941;SDS011;49042;47.318;19.874;2023-06-14T01:00:47;15.45;;;9.43;;
62941;SDS011;49042;47.318;19.874;2023-06-14T01:03:49;15.02;;;8.70;;
62941;SDS011;49042;47.318;19.874;2023-06-14T01:13:34;12.32;;;8.77;;
62941;SDS011;49042;47.318;19.874;2023-06-14T01:16:39;14.30;;;9.70;;
62941;SDS011;49042;47.318;19.874;2023-06-14T01:19:42;14.27;;;9.25;;
62941;SDS011;49042;47.318;19.874;2023-06-14T01:22:50;14.63;;;9.55;;
62941;SDS011;49042;47.318;19.874;2023-06-14T01:28:54;17.80;;;9.40;;
62941;SDS011;49042;47.318;19.874;2023-06-14T01:32:00;15.57;;;9.35;;
62941;SDS011;49042;47.318;19.874;2023-06-14T01:35:02;15.60;;;9.20;;
62941;SDS011;49042;47.318;19.874;2023-06-14T01:38:05;14.87;;;9.65;;
62941;SDS011;49042;47.318;19.874;2023-06-14T01:41:09;12.77;;;9.38;;
62941;SDS011;49042;47.318;19.874;2023-06-14T01:44:12;13.93;;;8.27;;
62941;SDS011;49042;47.318;19.874;2023-06-14T01:47:15;13.27;;;8.23;;
62941;SDS011;49042;47.318;19.874;2023-06-14T01:50:18;11.57;;;8.38;;
62941;SDS011;49042;47.318;19.874;2023-06-14T01:53:21;18.35;;;8.65;;
62941;SDS011;49042;47.318;19.874;2023-06-14T01:56:23;13.55;;;8.95;;
62941;SDS011;49042;47.318;19.874;2023-06-14T01:59:25;17.45;;;9.10;;
62941;SDS011;49042;47.318;19.874;2023-06-14T02:02:26;17.50;;;8.90;;
62941;SDS011;49042;47.318;19.874;2023-06-14T02:05:28;17.95;;;9.13;;
62941;SDS011;49042;47.318;19.874;2023-06-14T02:08:31;14.57;;;9.40;;
62941;SDS011;49042;47.318;19.874;2023-06-14T02:11:33;14.48;;;8.90;;
62941;SDS011;49042;47.318;19.874;2023-06-14T02:14:34;13.90;;;9.23;;
62941;SDS011;49042;47.318;19.874;2023-06-14T02:17:36;14.25;;;9.02;;
62941;SDS011;49042;47.318;19.874;2023-06-14T02:20:38;13.10;;;8.65;;
62941;SDS011;49042;47.318;19.874;2023-06-14T02:23:40;13.02;;;8.98;;
62941;SDS011;49042;47.318;19.874;2023-06-14T02:26:42;12.40;;;8.63;;
62941;SDS011;49042;47.318;19.874;2023-06-14T02:29:44;16.25;;;8.20;;
62941;SDS011;49042;47.318;19.874;2023-06-14T02:32:46;11.50;;;7.85;;
62941;SDS011;49042;47.318;19.874;2023-06-14T02:35:49;14.15;;;8.18;;
62941;SDS011;49042;47.318;19.874;2023-06-14T02:38:52;17.67;;;7.45;;
62941;SDS011;49042;47.318;19.874;2023-06-14T02:41:55;10.60;;;7.20;;
62941;SDS011;49042;47.318;19.874;2023-06-14T02:44:57;13.65;;;6.75;;
62941;SDS011;49042;47.318;19.874;2023-06-14T02:47:59;10.60;;;6.35;;
62941;SDS011;49042;47.318;19.874;2023-06-14T02:51:00;11.60;;;6.60;;
62941;SDS011;49042;47.318;19.874;2023-06-14T02:54:02;12.77;;;6.45;;
62941;SDS011;49042;47.318;19.874;2023-06-14T02:57:04;11.88;;;6.82;;
62941;SDS011;49042;47.318;19.874;2023-06-14T03:00:08;13.73;;;7.12;;
62941;SDS011;49042;47.318;19.874;2023-06-14T03:03:15;10.75;;;6.43;;
62941;SDS011;49042;47.318;19.874;2023-06-14T03:06:18;14.68;;;7.25;;
62941;SDS011;49042;47.318;19.874;2023-06-14T03:09:20;10.07;;;7.00;;
62941;SDS011;49042;47.318;19.874;2023-06-14T03:12:22;11.30;;;7.30;;
62941;SDS011;49042;47.318;19.874;2023-06-14T03:15:25;10.35;;;6.43;;
62941;SDS011;49042;47.318;19.874;2023-06-14T03:18:26;20.33;;;8.10;;
62941;SDS011;49042;47.318;19.874;2023-06-14T03:21:28;26.58;;;8.70;;
62941;SDS011;49042;47.318;19.874;2023-06-14T03:24:30;18.05;;;8.75;;
62941;SDS011;49042;47.318;19.874;2023-06-14T03:27:38;16.55;;;7.80;;
62941;SDS011;49042;47.318;19.874;2023-06-14T03:30:40;18.08;;;8.30;;
62941;SDS011;49042;47.318;19.874;2023-06-14T03:33:42;18.60;;;8.70;;
62941;SDS011;49042;47.318;19.874;2023-06-14T03:36:44;23.10;;;9.73;;
62941;SDS011;49042;47.318;19.874;2023-06-14T03:39:46;18.87;;;10.02;;
62941;SDS011;49042;47.318;19.874;2023-06-14T03:42:49;26.23;;;10.43;;
62941;SDS011;49042;47.318;19.874;2023-06-14T03:45:50;20.42;;;9.85;;
62941;SDS011;49042;47.318;19.874;2023-06-14T03:48:52;26.80;;;10.10;;
62941;SDS011;49042;47.318;19.874;2023-06-14T03:51:54;17.25;;;9.70;;
62941;SDS011;49042;47.318;19.874;2023-06-14T03:54:56;18.55;;;9.93;;
62941;SDS011;49042;47.318;19.874;2023-06-14T03:58:18;16.40;;;9.80;;
62941;SDS011;49042;47.318;19.874;2023-06-14T04:01:20;27.85;;;10.75;;
62941;SDS011;49042;47.318;19.874;2023-06-14T04:04:22;18.20;;;9.35;;
62941;SDS011;49042;47.318;19.874;2023-06-14T04:07:30;19.00;;;9.82;;
62941;SDS011;49042;47.318;19.874;2023-06-14T04:10:32;15.65;;;10.50;;
62941;SDS011;49042;47.318;19.874;2023-06-14T04:13:33;18.05;;;10.88;;
62941;SDS011;49042;47.318;19.874;2023-06-14T04:16:36;18.85;;;10.88;;
62941;SDS011;49042;47.318;19.874;2023-06-14T04:19:38;21.42;;;10.50;;
62941;SDS011;49042;47.318;19.874;2023-06-14T04:22:40;16.20;;;10.10;;
62941;SDS011;49042;47.318;19.874;2023-06-14T04:25:42;38.10;;;11.82;;
62941;SDS011;49042;47.318;19.874;2023-06-14T04:28:46;15.80;;;10.02;;
62941;SDS011;49042;47.318;19.874;2023-06-14T04:31:48;25.10;;;10.50;;
62941;SDS011;49042;47.318;19.874;2023-06-14T04:34:51;17.48;;;10.75;;
62941;SDS011;49042;47.318;19.874;2023-06-14T04:37:55;21.15;;;10.80;;
62941;SDS011;49042;47.318;19.874;2023-06-14T04:40:56;17.05;;;10.32;;
62941;SDS011;49042;47.318;19.874;2023-06-14T04:43:59;12.95;;;9.25;;
62941;SDS011;49042;47.318;19.874;2023-06-14T04:47:03;17.15;;;9.20;;
62941;SDS011;49042;47.318;19.874;2023-06-14T04:50:05;16.17;;;9.35;;
62941;SDS011;49042;47.318;19.874;2023-06-14T04:53:07;21.67;;;10.18;;
62941;SDS011;49042;47.318;19.874;2023-06-14T04:56:09;19.77;;;9.70;;
62941;SDS011;49042;47.318;19.874;2023-06-14T04:59:11;19.05;;;8.75;;
62941;SDS011;49042;47.318;19.874;2023-06-14T05:02:14;14.95;;;9.20;;
62941;SDS011;49042;47.318;19.874;2023-06-14T05:05:15;13.60;;;8.48;;
62941;SDS011;49042;47.318;19.874;2023-06-14T05:08:20;12.35;;;8.23;;
62941;SDS011;49042;47.318;19.874;2023-06-14T05:11:24;13.38;;;7.70;;
62941;SDS011;49042;47.318;19.874;2023-06-14T05:14:27;12.10;;;8.00;;
62941;SDS011;49042;47.318;19.874;2023-06-14T05:17:29;14.40;;;7.97;;
62941;SDS011;49042;47.318;19.874;2023-06-14T05:20:31;13.25;;;6.95;;
62941;SDS011;49042;47.318;19.874;2023-06-14T05:23:32;10.85;;;6.65;;
62941;SDS011;49042;47.318;19.874;2023-06-14T05:26:34;10.95;;;6.45;;
62941;SDS011;49042;47.318;19.874;2023-06-14T05:29:36;15.52;;;7.22;;
62941;SDS011;49042;47.318;19.874;2023-06-14T05:32:38;10.43;;;6.75;;
62941;SDS011;49042;47.318;19.874;2023-06-14T05:35:40;13.48;;;6.82;;
62941;SDS011;49042;47.318;19.874;2023-06-14T05:38:41;11.73;;;6.53;;
62941;SDS011;49042;47.318;19.874;2023-06-14T05:41:43;10.75;;;6.97;;
62941;SDS011;49042;47.318;19.874;2023-06-14T05:44:45;11.95;;;6.78;;
62941;SDS011;49042;47.318;19.874;2023-06-14T05:47:46;9.27;;;6.82;;
62941;SDS011;49042;47.318;19.874;2023-06-14T05:50:49;13.45;;;6.22;;
62941;SDS011;49042;47.318;19.874;2023-06-14T05:53:50;23.52;;;7.10;;
62941;SDS011;49042;47.318;19.874;2023-06-14T05:56:52;10.88;;;5.90;;
62941;SDS011;49042;47.318;19.874;2023-06-14T05:59:54;8.65;;;5.18;;
62941;SDS011;49042;47.318;19.874;2023-06-14T06:02:56;8.23;;;5.70;;
62941;SDS011;49042;47.318;19.874;2023-06-14T06:05:59;9.65;;;5.47;;
62941;SDS011;49042;47.318;19.874;2023-06-14T06:09:01;9.68;;;5.22;;
62941;SDS011;49042;47.318;19.874;2023-06-14T06:12:05;11.15;;;5.50;;
62941;SDS011;49042;47.318;19.874;2023-06-14T06:15:08;10.45;;;5.95;;
62941;SDS011;49042;47.318;19.874;2023-06-14T06:18:13;10.55;;;6.28;;
62941;SDS011;49042;47.318;19.874;2023-06-14T06:21:15;10.30;;;5.53;;
62941;SDS011;49042;47.318;19.874;2023-06-14T06:24:17;10.70;;;5.65;;
62941;SDS011;49042;47.318;19.874;2023-06-14T06:27:19;9.32;;;5.00;;
62941;SDS011;49042;47.318;19.874;2023-06-14T06:30:21;9.85;;;5.47;;
62941;SDS011;49042;47.318;19.874;2023-06-14T06:33:23;8.55;;;5.37;;
62941;SDS011;49042;47.318;19.874;2023-06-14T06:36:25;8.48;;;5.15;;
62941;SDS011;49042;47.318;19.874;2023-06-14T06:39:26;10.40;;;5.32;;
62941;SDS011;49042;47.318;19.874;2023-06-14T06:42:28;9.00;;;4.93;;
62941;SDS011;49042;47.318;19.874;2023-06-14T06:45:30;6.35;;;4.85;;
62941;SDS011;49042;47.318;19.874;2023-06-14T06:48:32;7.03;;;4.95;;
62941;SDS011;49042;47.318;19.874;2023-06-14T06:51:34;6.95;;;4.62;;
62941;SDS011;49042;47.318;19.874;2023-06-14T06:54:38;8.93;;;4.50;;
62941;SDS011;49042;47.318;19.874;2023-06-14T06:57:39;8.05;;;4.87;;
62941;SDS011;49042;47.318;19.874;2023-06-14T07:00:41;7.18;;;5.00;;
62941;SDS011;49042;47.318;19.874;2023-06-14T07:03:43;10.20;;;4.78;;
62941;SDS011;49042;47.318;19.874;2023-06-14T07:06:45;8.05;;;5.10;;
62941;SDS011;49042;47.318;19.874;2023-06-14T07:09:48;6.62;;;4.53;;
62941;SDS011;49042;47.318;19.874;2023-06-14T07:12:50;7.78;;;5.35;;
62941;SDS011;49042;47.318;19.874;2023-06-14T07:15:56;8.52;;;5.22;;
62941;SDS011;49042;47.318;19.874;2023-06-14T07:18:59;8.10;;;5.05;;
62941;SDS011;49042;47.318;19.874;2023-06-14T07:22:02;6.18;;;4.32;;
62941;SDS011;49042;47.318;19.874;2023-06-14T07:25:03;7.78;;;4.53;;
62941;SDS011;49042;47.318;19.874;2023-06-14T07:28:05;8.70;;;5.10;;
62941;SDS011;49042;47.318;19.874;2023-06-14T07:31:08;8.57;;;5.05;;
62941;SDS011;49042;47.318;19.874;2023-06-14T07:34:10;7.95;;;4.95;;
62941;SDS011;49042;47.318;19.874;2023-06-14T07:37:12;6.05;;;4.10;;
62941;SDS011;49042;47.318;19.874;2023-06-14T07:40:13;5.68;;;4.28;;
62941;SDS011;49042;47.318;19.874;2023-06-14T07:43:15;6.78;;;4.95;;
62941;SDS011;49042;47.318;19.874;2023-06-14T07:46:17;7.40;;;4.53;;
62941;SDS011;49042;47.318;19.874;2023-06-14T07:49:19;7.22;;;4.62;;
62941;SDS011;49042;47.318;19.874;2023-06-14T07:52:21;6.50;;;4.00;;
62941;SDS011;49042;47.318;19.874;2023-06-14T07:55:23;5.12;;;4.05;;
62941;SDS011;49042;47.318;19.874;2023-06-14T07:58:26;5.93;;;4.28;;
62941;SDS011;49042;47.318;19.874;2023-06-14T08:01:28;9.32;;;4.85;;
62941;SDS011;49042;47.318;19.874;2023-06-14T08:04:31;6.55;;;3.92;;
62941;SDS011;49042;47.318;19.874;2023-06-14T08:07:32;7.55;;;4.15;;
62941;SDS011;49042;47.318;19.874;2023-06-14T08:10:34;9.35;;;4.47;;
62941;SDS011;49042;47.318;19.874;2023-06-14T08:13:36;5.45;;;4.18;;
62941;SDS011;49042;47.318;19.874;2023-06-14T08:16:37;6.22;;;4.22;;
62941;SDS011;49042;47.318;19.874;2023-06-14T08:19:39;5.82;;;3.90;;
62941;SDS011;49042;47.318;19.874;2023-06-14T08:22:42;6.35;;;3.90;;
62941;SDS011;49042;47.318;19.874;2023-06-14T08:25:44;5.70;;;3.53;;
62941;SDS011;49042;47.318;19.874;2023-06-14T08:28:46;10.48;;;3.53;;
62941;SDS011;49042;47.318;19.874;2023-06-14T08:31:48;4.30;;;3.28;;
62941;SDS011;49042;47.318;19.874;2023-06-14T08:34:50;3.58;;;3.08;;
62941;SDS011;49042;47.318;19.874;2023-06-14T08:38:05;4.37;;;3.33;;
62941;SDS011;49042;47.318;19.874;2023-06-14T08:41:06;9.88;;;3.47;;
62941;SDS011;49042;47.318;19.874;2023-06-14T08:44:12;11.20;;;3.33;;
62941;SDS011;49042;47.318;19.874;2023-06-14T08:47:14;13.55;;;3.40;;
62941;SDS011;49042;47.318;19.874;2023-06-14T08:50:20;7.47;;;3.03;;
62941;SDS011;49042;47.318;19.874;2023-06-14T08:53:32;4.70;;;2.62;;
62941;SDS011;49042;47.318;19.874;2023-06-14T08:56:38;6.30;;;3.12;;
62941;SDS011;49042;47.318;19.874;2023-06-14T08:59:45;4.05;;;3.12;;
62941;SDS011;49042;47.318;19.874;2023-06-14T09:02:51;5.80;;;3.12;;
62941;SDS011;49042;47.318;19.874;2023-06-14T09:05:56;4.85;;;3.55;;
62941;SDS011;49042;47.318;19.874;2023-06-14T09:09:00;4.45;;;2.87;;
62941;SDS011;49042;47.318;19.874;2023-06-14T09:12:03;4.68;;;2.60;;
62941;SDS011;49042;47.318;19.874;2023-06-14T09:15:07;4.90;;;3.17;;
62941;SDS011;49042;47.318;19.874;2023-06-14T09:18:10;4.68;;;2.58;;
62941;SDS011;49042;47.318;19.874;2023-06-14T09:21:13;5.78;;;2.80;;
62941;SDS011;49042;47.318;19.874;2023-06-14T09:24:16;9.63;;;3.25;;
62941;SDS011;49042;47.318;19.874;2023-06-14T09:27:17;4.53;;;2.60;;
62941;SDS011;49042;47.318;19.874;2023-06-14T09:30:21;4.55;;;2.67;;
62941;SDS011;49042;47.318;19.874;2023-06-14T09:33:23;4.93;;;2.10;;
62941;SDS011;49042;47.318;19.874;2023-06-14T09:36:27;2.65;;;1.67;;
62941;SDS011;49042;47.318;19.874;2023-06-14T09:39:29;5.03;;;2.00;;
62941;SDS011;49042;47.318;19.874;2023-06-14T09:42:30;8.10;;;2.12;;
62941;SDS011;49042;47.318;19.874;2023-06-14T09:45:32;2.55;;;1.95;;
62941;SDS011;49042;47.318;19.874;2023-06-14T09:48:34;3.00;;;1.98;;
62941;SDS011;49042;47.318;19.874;2023-06-14T09:51:36;4.15;;;1.87;;
62941;SDS011;49042;47.318;19.874;2023-06-14T09:54:45;5.18;;;1.90;;
62941;SDS011;49042;47.318;19.874;2023-06-14T09:57:48;8.00;;;2.00;;
62941;SDS011;49042;47.318;19.874;2023-06-14T10:00:52;4.78;;;2.15;;
62941;SDS011;49042;47.318;19.874;2023-06-14T10:04:00;10.00;;;8.98;;
62941;SDS011;49042;47.318;19.874;2023-06-14T10:07:12;20.40;;;17.60;;
62941;SDS011;49042;47.318;19.874;2023-06-14T10:10:19;3.60;;;2.53;;
62941;SDS011;49042;47.318;19.874;2023-06-14T10:13:21;5.03;;;2.15;;
62941;SDS011;49042;47.318;19.874;2023-06-14T10:19:48;6.20;;;2.40;;
62941;SDS011;49042;47.318;19.874;2023-06-14T10:23:00;5.90;;;1.92;;
62941;SDS011;49042;47.318;19.874;2023-06-14T10:26:07;5.37;;;4.05;;
62941;SDS011;49042;47.318;19.874;2023-06-14T10:29:08;24.17;;;19.10;;
62941;SDS011;49042;47.318;19.874;2023-06-14T10:32:10;7.97;;;3.72;;
62941;SDS011;49042;47.318;19.874;2023-06-14T10:35:15;10.20;;;5.35;;
62941;SDS011;49042;47.318;19.874;2023-06-14T10:38:18;5.00;;;3.20;;
62941;SDS011;49042;47.318;19.874;2023-06-14T10:41:36;9.80;;;5.75;;
62941;SDS011;49042;47.318;19.874;2023-06-14T10:47:45;9.25;;;6.55;;
62941;SDS011;49042;47.318;19.874;2023-06-14T10:50:53;4.87;;;2.50;;
62941;SDS011;49042;47.318;19.874;2023-06-14T10:54:03;7.15;;;2.70;;
62941;SDS011;49042;47.318;19.874;2023-06-14T10:57:06;4.43;;;2.75;;
62941;SDS011;49042;47.318;19.874;2023-06-14T11:00:09;8.07;;;6.85;;
62941;SDS011;49042;47.318;19.874;2023-06-14T11:03:50;8.15;;;3.97;;
62941;SDS011;49042;47.318;19.874;2023-06-14T11:06:53;4.07;;;2.72;;
62941;SDS011;49042;47.318;19.874;2023-06-14T11:13:43;7.93;;;4.43;;
62941;SDS011;49042;47.318;19.874;2023-06-14T11:16:49;6.50;;;3.25;;
62941;SDS011;49042;47.318;19.874;2023-06-14T11:20:07;4.35;;;2.95;;
62941;SDS011;49042;47.318;19.874;2023-06-14T11:23:12;6.37;;;5.50;;
62941;SDS011;49042;47.318;19.874;2023-06-14T11:26:14;5.00;;;3.62;;
62941;SDS011;49042;47.318;19.874;2023-06-14T11:29:15;3.53;;;2.83;;
62941;SDS011;49042;47.318;19.874;2023-06-14T11:32:18;5.72;;;2.60;;
62941;SDS011;49042;47.318;19.874;2023-06-14T11:35:22;4.90;;;2.45;;
62941;SDS011;49042;47.318;19.874;2023-06-14T11:38:25;14.05;;;2.60;;
62941;SDS011;49042;47.318;19.874;2023-06-14T11:41:32;4.87;;;2.60;;
62941;SDS011;49042;47.318;19.874;2023-06-14T11:44:34;3.85;;;2.50;;
62941;SDS011;49042;47.318;19.874;2023-06-14T11:47:36;3.62;;;2.40;;
62941;SDS011;49042;47.318;19.874;2023-06-14T11:50:39;3.10;;;2.50;;
62941;SDS011;49042;47.318;19.874;2023-06-14T11:53:42;2.35;;;2.15;;
62941;SDS011;49042;47.318;19.874;2023-06-14T11:56:44;4.18;;;2.20;;
62941;SDS011;49042;47.318;19.874;2023-06-14T11:59:46;9.15;;;2.58;;
62941;SDS011;49042;47.318;19.874;2023-06-14T12:02:54;3.95;;;2.50;;
62941;SDS011;49042;47.318;19.874;2023-06-14T12:09:10;5.07;;;2.22;;
62941;SDS011;49042;47.318;19.874;2023-06-14T12:12:15;4.27;;;2.40;;
62941;SDS011;49042;47.318;19.874;2023-06-14T12:15:17;5.35;;;2.33;;
62941;SDS011;49042;47.318;19.874;2023-06-14T12:18:19;3.25;;;2.10;;
62941;SDS011;49042;47.318;19.874;2023-06-14T12:21:22;4.68;;;1.85;;
62941;SDS011;49042;47.318;19.874;2023-06-14T12:24:27;11.63;;;2.05;;
62941;SDS011;49042;47.318;19.874;2023-06-14T12:27:30;3.40;;;1.98;;
62941;SDS011;49042;47.318;19.874;2023-06-14T12:30:32;6.60;;;2.37;;
62941;SDS011;49042;47.318;19.874;2023-06-14T12:33:34;3.58;;;2.00;;
62941;SDS011;49042;47.318;19.874;2023-06-14T12:36:36;4.93;;;2.20;;
62941;SDS011;49042;47.318;19.874;2023-06-14T12:39:43;3.10;;;2.20;;
62941;SDS011;49042;47.318;19.874;2023-06-14T12:42:45;5.22;;;2.20;;
62941;SDS011;49042;47.318;19.874;2023-06-14T12:45:48;5.05;;;2.22;;
62941;SDS011;49042;47.318;19.874;2023-06-14T12:48:50;6.90;;;2.40;;
62941;SDS011;49042;47.318;19.874;2023-06-14T12:51:51;8.00;;;2.10;;
62941;SDS011;49042;47.318;19.874;2023-06-14T12:54:53;4.28;;;2.30;;
62941;SDS011;49042;47.318;19.874;2023-06-14T12:57:55;5.95;;;2.70;;
62941;SDS011;49042;47.318;19.874;2023-06-14T13:00:56;8.13;;;3.05;;
62941;SDS011;49042;47.318;19.874;2023-06-14T13:03:58;4.93;;;2.33;;
62941;SDS011;49042;47.318;19.874;2023-06-14T13:07:00;8.23;;;2.60;;
62941;SDS011;49042;47.318;19.874;2023-06-14T13:10:02;4.00;;;2.50;;
62941;SDS011;49042;47.318;19.874;2023-06-14T13:13:04;9.45;;;2.72;;
62941;SDS011;49042;47.318;19.874;2023-06-14T13:16:06;8.82;;;2.70;;
62941;SDS011;49042;47.318;19.874;2023-06-14T13:19:08;2.70;;;2.28;;
62941;SDS011;49042;47.318;19.874;2023-06-14T13:22:09;4.12;;;2.50;;
62941;SDS011;49042;47.318;19.874;2023-06-14T13:25:11;5.65;;;2.22;;
62941;SDS011;49042;47.318;19.874;2023-06-14T13:28:13;7.57;;;2.20;;
62941;SDS011;49042;47.318;19.874;2023-06-14T13:31:15;4.57;;;3.35;;
62941;SDS011;49042;47.318;19.874;2023-06-14T13:34:16;10.60;;;2.33;;
62941;SDS011;49042;47.318;19.874;2023-06-14T13:37:18;7.65;;;2.67;;
62941;SDS011;49042;47.318;19.874;2023-06-14T13:40:20;6.82;;;2.40;;
62941;SDS011;49042;47.318;19.874;2023-06-14T13:43:22;5.47;;;2.65;;
62941;SDS011;49042;47.318;19.874;2023-06-14T13:46:24;6.32;;;2.58;;
62941;SDS011;49042;47.318;19.874;2023-06-14T13:49:26;6.00;;;2.25;;
62941;SDS011;49042;47.318;19.874;2023-06-14T13:52:28;7.90;;;2.55;;
62941;SDS011;49042;47.318;19.874;2023-06-14T13:55:29;4.95;;;2.30;;
62941;SDS011;49042;47.318;19.874;2023-06-14T13:58:31;6.47;;;2.35;;
62941;SDS011;49042;47.318;19.874;2023-06-14T14:01:33;3.40;;;2.60;;
62941;SDS011;49042;47.318;19.874;2023-06-14T14:04:35;2.95;;;2.00;;
62941;SDS011;49042;47.318;19.874;2023-06-14T14:07:37;3.83;;;2.10;;
62941;SDS011;49042;47.318;19.874;2023-06-14T14:10:39;6.82;;;2.35;;
62941;SDS011;49042;47.318;19.874;2023-06-14T14:13:41;9.57;;;2.30;;
62941;SDS011;49042;47.318;19.874;2023-06-14T14:16:44;7.78;;;2.58;;
62941;SDS011;49042;47.318;19.874;2023-06-14T14:19:45;4.00;;;2.20;;
62941;SDS011;49042;47.318;19.874;2023-06-14T14:22:47;6.15;;;2.50;;
62941;SDS011;49042;47.318;19.874;2023-06-14T14:25:49;5.30;;;2.70;;
62941;SDS011;49042;47.318;19.874;2023-06-14T14:28:51;13.70;;;2.53;;
62941;SDS011;49042;47.318;19.874;2023-06-14T14:31:53;4.25;;;2.53;;
62941;SDS011;49042;47.318;19.874;2023-06-14T14:34:55;3.53;;;2.28;;
62941;SDS011;49042;47.318;19.874;2023-06-14T14:37:57;7.55;;;2.78;;
62941;SDS011;49042;47.318;19.874;2023-06-14T14:40:58;10.25;;;2.83;;
62941;SDS011;49042;47.318;19.874;2023-06-14T14:44:00;5.80;;;2.50;;
62941;SDS011;49042;47.318;19.874;2023-06-14T14:47:02;5.10;;;2.67;;
62941;SDS011;49042;47.318;19.874;2023-06-14T14:50:04;8.43;;;2.50;;
62941;SDS011;49042;47.318;19.874;2023-06-14T14:53:10;10.65;;;2.80;;
62941;SDS011;49042;47.318;19.874;2023-06-14T14:56:11;7.15;;;2.55;;
62941;SDS011;49042;47.318;19.874;2023-06-14T14:59:13;6.07;;;2.78;;
62941;SDS011;49042;47.318;19.874;2023-06-14T15:02:15;2.67;;;2.30;;
62941;SDS011;49042;47.318;19.874;2023-06-14T15:05:16;5.87;;;2.60;;
62941;SDS011;49042;47.318;19.874;2023-06-14T15:08:18;5.55;;;2.70;;
62941;SDS011;49042;47.318;19.874;2023-06-14T15:11:21;11.23;;;2.30;;
62941;SDS011;49042;47.318;19.874;2023-06-14T15:14:23;5.18;;;2.58;;
62941;SDS011;49042;47.318;19.874;2023-06-14T15:17:24;2.55;;;2.25;;
62941;SDS011;49042;47.318;19.874;2023-06-14T15:20:26;3.95;;;2.33;;
62941;SDS011;49042;47.318;19.874;2023-06-14T15:23:28;3.95;;;2.40;;
62941;SDS011;49042;47.318;19.874;2023-06-14T15:26:30;14.68;;;2.30;;
62941;SDS011;49042;47.318;19.874;2023-06-14T15:29:31;5.05;;;2.10;;
62941;SDS011;49042;47.318;19.874;2023-06-14T15:32:33;7.32;;;2.58;;
62941;SDS011;49042;47.318;19.874;2023-06-14T15:35:35;5.07;;;2.22;;
62941;SDS011;49042;47.318;19.874;2023-06-14T15:38:40;5.40;;;2.70;;
62941;SDS011;49042;47.318;19.874;2023-06-14T15:41:41;7.05;;;2.50;;
62941;SDS011;49042;47.318;19.874;2023-06-14T15:44:43;3.90;;;2.40;;
62941;SDS011;49042;47.318;19.874;2023-06-14T15:47:45;3.53;;;2.35;;
62941;SDS011;49042;47.318;19.874;2023-06-14T15:50:46;4.15;;;2.42;;
62941;SDS011;49042;47.318;19.874;2023-06-14T15:53:48;5.00;;;2.25;;
62941;SDS011;49042;47.318;19.874;2023-06-14T15:56:50;3.53;;;2.42;;
62941;SDS011;49042;47.318;19.874;2023-06-14T15:59:52;12.40;;;2.35;;
62941;SDS011;49042;47.318;19.874;2023-06-14T16:02:53;4.43;;;2.33;;
62941;SDS011;49042;47.318;19.874;2023-06-14T16:05:55;6.80;;;2.40;;
62941;SDS011;49042;47.318;19.874;2023-06-14T16:08:57;4.62;;;2.47;;
62941;SDS011;49042;47.318;19.874;2023-06-14T16:11:59;3.85;;;2.40;;
62941;SDS011;49042;47.318;19.874;2023-06-14T16:15:01;4.15;;;2.70;;
62941;SDS011;49042;47.318;19.874;2023-06-14T16:18:03;4.82;;;3.10;;
62941;SDS011;49042;47.318;19.874;2023-06-14T16:21:05;7.18;;;3.08;;
62941;SDS011;49042;47.318;19.874;2023-06-14T16:24:10;4.37;;;3.25;;
62941;SDS011;49042;47.318;19.874;2023-06-14T16:27:12;6.75;;;2.70;;
62941;SDS011;49042;47.318;19.874;2023-06-14T16:30:15;5.37;;;3.10;;
62941;SDS011;49042;47.318;19.874;2023-06-14T16:33:17;10.18;;;3.20;;
62941;SDS011;49042;47.318;19.874;2023-06-14T16:36:22;5.07;;;3.40;;
62941;SDS011;49042;47.318;19.874;2023-06-14T16:39:25;6.05;;;3.72;;
62941;SDS011;49042;47.318;19.874;2023-06-14T16:42:26;7.22;;;3.85;;
62941;SDS011;49042;47.318;19.874;2023-06-14T16:45:28;3.92;;;2.87;;
62941;SDS011;49042;47.318;19.874;2023-06-14T16:48:30;4.55;;;2.87;;
62941;SDS011;49042;47.318;19.874;2023-06-14T16:51:32;13.65;;;3.08;;
62941;SDS011;49042;47.318;19.874;2023-06-14T16:54:34;9.98;;;3.08;;
62941;SDS011;49042;47.318;19.874;2023-06-14T16:57:37;12.02;;;3.22;;
62941;SDS011;49042;47.318;19.874;2023-06-14T17:00:40;7.15;;;3.37;;
62941;SDS011;49042;47.318;19.874;2023-06-14T17:03:41;4.25;;;3.22;;
62941;SDS011;49042;47.318;19.874;2023-06-14T17:06:43;6.15;;;3.35;;
62941;SDS011;49042;47.318;19.874;2023-06-14T17:09:45;7.00;;;3.28;;
62941;SDS011;49042;47.318;19.874;2023-06-14T17:12:47;7.05;;;3.00;;
62941;SDS011;49042;47.318;19.874;2023-06-14T17:15:49;7.28;;;3.47;;
62941;SDS011;49042;47.318;19.874;2023-06-14T17:18:50;6.62;;;3.50;;
62941;SDS011;49042;47.318;19.874;2023-06-14T17:21:52;7.97;;;3.00;;
62941;SDS011;49042;47.318;19.874;2023-06-14T17:24:54;6.65;;;3.30;;
62941;SDS011;49042;47.318;19.874;2023-06-14T17:27:56;8.77;;;2.92;;
62941;SDS011;49042;47.318;19.874;2023-06-14T17:30:59;7.35;;;2.87;;
62941;SDS011;49042;47.318;19.874;2023-06-14T17:34:01;12.77;;;3.20;;
62941;SDS011;49042;47.318;19.874;2023-06-14T17:37:02;10.82;;;3.25;;
62941;SDS011;49042;47.318;19.874;2023-06-14T17:40:04;12.63;;;3.72;;
62941;SDS011;49042;47.318;19.874;2023-06-14T17:43:07;7.50;;;3.58;;
62941;SDS011;49042;47.318;19.874;2023-06-14T17:46:09;13.77;;;3.55;;
62941;SDS011;49042;47.318;19.874;2023-06-14T17:49:11;10.15;;;4.30;;
62941;SDS011;49042;47.318;19.874;2023-06-14T17:52:13;7.07;;;3.60;;
62941;SDS011;49042;47.318;19.874;2023-06-14T17:55:15;6.93;;;3.80;;
62941;SDS011;49042;47.318;19.874;2023-06-14T17:58:17;6.18;;;3.45;;
62941;SDS011;49042;47.318;19.874;2023-06-14T18:01:19;11.40;;;3.67;;
62941;SDS011;49042;47.318;19.874;2023-06-14T18:04:22;7.75;;;3.58;;
62941;SDS011;49042;47.318;19.874;2023-06-14T18:07:24;10.13;;;3.47;;
62941;SDS011;49042;47.318;19.874;2023-06-14T18:10:26;5.68;;;3.55;;
62941;SDS011;49042;47.318;19.874;2023-06-14T18:13:28;11.30;;;3.92;;
62941;SDS011;49042;47.318;19.874;2023-06-14T18:16:30;13.60;;;4.25;;
62941;SDS011;49042;47.318;19.874;2023-06-14T18:19:32;7.65;;;3.47;;